createdAt,value
2017-09-23T00:01:16.192Z,62.55
2017-09-23T00:03:44.821Z,63.80
2017-09-23T00:06:12.706Z,58.03
2017-09-23T00:08:39.859Z,61.28
2017-09-23T00:11:07.600Z,66.43
2017-09-23T00:13:35.945Z,66.82
2017-09-23T00:16:03.236Z,93.78
2017-09-23T00:18:30.149Z,75.62
2017-09-23T00:20:59.020Z,69.97
2017-09-23T00:23:26.682Z,73.37
2017-09-23T00:25:59.225Z,88.55
2017-09-23T00:28:26.162Z,75.28
2017-09-23T00:30:53.352Z,76.93
2017-09-23T00:33:21.119Z,81.40
2017-09-23T00:35:48.852Z,72.72
2017-09-23T00:38:15.848Z,82.22
2017-09-23T00:40:44.555Z,81.50
2017-09-23T00:43:12.367Z,89.70
2017-09-23T00:45:40.165Z,89.55
2017-09-23T00:48:07.839Z,90.85
2017-09-23T00:50:34.733Z,94.93
2017-09-23T00:53:02.978Z,88.93
2017-09-23T00:58:03.019Z,90.30
2017-09-23T01:00:30.256Z,95.65
2017-09-23T01:02:57.541Z,103.72
2017-09-23T01:05:24.539Z,102.15
2017-09-23T01:07:53.028Z,88.50
2017-09-23T01:10:22.939Z,86.90
2017-09-23T01:12:53.415Z,99.13
2017-09-23T01:15:20.283Z,94.53
2017-09-23T01:17:47.529Z,99.07
2017-09-23T01:20:15.471Z,84.20
2017-09-23T01:22:43.632Z,87.07
2017-09-23T01:25:10.544Z,95.05
2017-09-23T01:27:38.468Z,92.10
2017-09-23T01:30:07.528Z,98.20
2017-09-23T01:32:34.720Z,109.20
2017-09-23T01:35:02.639Z,101.45
2017-09-23T01:37:30.135Z,116.45
2017-09-23T01:39:59.347Z,91.95
2017-09-23T01:42:26.542Z,88.82
2017-09-23T01:44:57.148Z,88.12
2017-09-23T01:47:24.240Z,87.22
2017-09-23T01:49:51.288Z,84.97
2017-09-23T01:52:18.565Z,107.68
2017-09-23T01:54:45.750Z,122.50
2017-09-23T01:57:13.766Z,89.50
2017-09-23T01:59:41.920Z,95.10
2017-09-23T02:02:09.039Z,133.40
2017-09-23T02:04:36.376Z,95.18
2017-09-23T02:07:03.643Z,103.10
2017-09-23T02:09:33.213Z,103.65
2017-09-23T02:12:00.666Z,106.80
2017-09-23T02:14:29.325Z,107.97
2017-09-23T02:16:58.276Z,103.00
2017-09-23T02:19:26.302Z,124.62
2017-09-23T02:21:54.733Z,98.00
2017-09-23T02:24:22.455Z,98.03
2017-09-23T02:26:50.288Z,95.53
2017-09-23T02:29:21.547Z,95.18
2017-09-23T02:31:50.934Z,94.57
2017-09-23T02:34:17.872Z,121.65
2017-09-23T02:36:45.923Z,101.43
2017-09-23T02:39:13.078Z,120.95
2017-09-23T02:41:40.702Z,116.68
2017-09-23T02:46:41.517Z,96.93
2017-09-23T02:49:15.292Z,100.90
2017-09-23T02:51:46.098Z,96.53
2017-09-23T02:54:14.942Z,110.68
2017-09-23T02:56:44.603Z,106.15
2017-09-23T02:59:12.016Z,112.82
2017-09-23T03:01:52.231Z,111.28
2017-09-23T03:04:20.969Z,152.65
2017-09-23T03:06:50.487Z,102.55
2017-09-23T03:09:17.627Z,107.37
2017-09-23T03:11:45.138Z,136.25
2017-09-23T03:14:13.088Z,112.78
2017-09-23T03:16:40.758Z,112.40
2017-09-23T03:19:08.168Z,111.55
2017-09-23T03:21:34.976Z,113.88
2017-09-23T03:24:03.335Z,116.25
2017-09-23T03:26:30.260Z,115.75
2017-09-23T03:29:00.898Z,124.95
2017-09-23T03:31:29.016Z,140.30
2017-09-23T03:33:56.422Z,126.87
2017-09-23T03:36:23.681Z,111.93
2017-09-23T03:38:50.512Z,154.00
2017-09-23T03:41:23.167Z,122.05
2017-09-23T03:43:50.362Z,134.60
2017-09-23T03:46:17.298Z,118.62
2017-09-23T03:48:44.769Z,117.45
2017-09-23T03:51:13.479Z,134.75
2017-09-23T03:53:40.461Z,137.68
2017-09-23T03:56:07.548Z,143.95
2017-09-23T03:58:34.774Z,138.98
2017-09-23T04:03:35.892Z,134.43
2017-09-23T04:06:04.311Z,162.20
2017-09-23T04:08:34.015Z,142.90
2017-09-23T04:11:02.767Z,151.82
2017-09-23T04:13:44.774Z,153.48
2017-09-23T04:16:25.906Z,126.40
2017-09-23T04:18:57.621Z,175.95
2017-09-23T04:24:10.739Z,144.10
2017-09-23T04:29:12.271Z,127.22
2017-09-23T04:42:01.012Z,144.23
2017-09-23T04:47:07.946Z,157.82
2017-09-23T04:49:38.580Z,181.87
2017-09-23T04:52:06.787Z,155.73
2017-09-23T04:54:35.338Z,306.27
2017-09-23T04:57:02.852Z,149.93
2017-09-23T04:59:30.581Z,125.53
2017-09-23T05:02:00.798Z,152.48
2017-09-23T05:04:29.459Z,161.57
2017-09-23T05:06:57.383Z,145.65
2017-09-23T05:09:27.052Z,145.70
2017-09-23T05:12:03.495Z,140.57
2017-09-23T05:14:34.150Z,143.77
2017-09-23T05:17:04.905Z,152.20
2017-09-23T05:19:33.489Z,167.68
2017-09-23T05:22:08.181Z,146.68
2017-09-23T05:35:42.911Z,146.43
2017-09-23T05:46:26.285Z,139.00
2017-09-23T05:48:56.072Z,131.37
2017-09-23T06:17:42.817Z,145.73
2017-09-23T06:20:10.731Z,136.15
2017-09-23T06:22:38.408Z,139.35
2017-09-23T06:25:17.879Z,140.27
2017-09-23T06:27:47.939Z,130.80
2017-09-23T06:30:15.084Z,130.25
2017-09-23T06:35:14.826Z,125.85
2017-09-23T06:37:45.493Z,114.15
2017-09-23T06:40:13.478Z,149.07
2017-09-23T06:52:52.777Z,113.12
2017-09-23T06:57:51.053Z,123.13
2017-09-23T07:02:49.252Z,119.37
2017-09-23T07:05:16.731Z,129.60
2017-09-23T07:07:45.476Z,118.25
2017-09-23T07:12:44.287Z,137.70
2017-09-23T07:20:16.455Z,204.60
2017-09-23T07:22:46.594Z,175.98
2017-09-23T07:25:14.128Z,180.37
2017-09-23T07:30:35.725Z,141.40
2017-09-23T07:35:40.216Z,144.82
2017-09-23T07:38:11.770Z,114.70
2017-09-23T07:48:43.881Z,126.70
2017-09-23T07:51:12.208Z,144.40
2017-09-23T07:56:21.974Z,113.55
2017-09-23T08:09:06.760Z,99.10
2017-09-23T08:14:09.839Z,94.25
2017-09-23T08:21:44.453Z,113.82
2017-09-23T08:37:43.027Z,103.60
2017-09-23T08:42:55.843Z,122.60
2017-09-23T08:45:32.303Z,118.32
2017-09-23T08:48:04.776Z,106.15
2017-09-23T08:50:32.638Z,105.22
2017-09-23T08:55:41.411Z,97.50
2017-09-23T08:58:15.396Z,106.15
2017-09-23T09:00:42.525Z,109.53
2017-09-23T09:11:02.129Z,86.75
2017-09-23T09:18:44.156Z,91.50
2017-09-23T09:34:34.122Z,72.45
2017-09-23T09:39:49.200Z,71.78
2017-09-23T09:44:55.609Z,70.40
2017-09-23T09:47:35.075Z,65.25
2017-09-23T09:50:03.548Z,73.12
2017-09-23T09:52:32.682Z,79.25
2017-09-23T10:05:21.045Z,74.55
2017-09-23T10:07:49.801Z,72.70
2017-09-23T10:13:09.873Z,67.00
2017-09-23T10:15:38.905Z,63.08
2017-09-23T10:25:57.837Z,72.57
2017-09-23T10:44:35.256Z,58.95
2017-09-23T10:49:49.783Z,59.40
2017-09-23T11:21:30.075Z,50.58
2017-09-23T11:24:01.399Z,52.25
2017-09-23T11:26:28.371Z,54.00
2017-09-23T11:29:02.751Z,53.03
2017-09-23T11:34:10.662Z,49.83
2017-09-23T11:36:37.891Z,51.80
2017-09-23T11:41:37.096Z,52.53
2017-09-23T11:44:12.210Z,56.33
2017-09-23T11:46:42.180Z,58.92
2017-09-23T11:49:11.397Z,56.50
2017-09-23T11:51:39.606Z,48.92
2017-09-23T11:54:12.249Z,47.35
2017-09-23T11:59:10.285Z,47.28
2017-09-23T12:01:47.156Z,52.83
2017-09-23T12:04:15.287Z,49.78
2017-09-23T12:06:43.775Z,46.88
2017-09-23T12:09:26.876Z,46.70
2017-09-23T12:14:27.584Z,44.63
2017-09-23T12:16:56.001Z,42.67
2017-09-23T12:19:23.352Z,44.88
2017-09-23T12:21:51.732Z,39.63
2017-09-23T12:24:20.761Z,49.55
2017-09-23T12:29:21.004Z,42.92
2017-09-23T12:31:48.724Z,47.33
2017-09-23T12:34:19.893Z,46.30
2017-09-23T12:36:47.199Z,43.85
2017-09-23T12:39:28.451Z,48.30
2017-09-23T12:41:56.448Z,41.45
2017-09-23T12:44:24.563Z,48.63
2017-09-23T12:46:51.792Z,44.20
2017-09-23T12:49:19.877Z,48.90
2017-09-23T12:51:46.659Z,47.45
2017-09-23T12:54:16.444Z,46.20
2017-09-23T12:56:43.559Z,42.97
2017-09-23T12:59:12.519Z,48.80
2017-09-23T13:01:39.850Z,45.00
2017-09-23T13:04:07.624Z,45.67
2017-09-23T13:06:34.814Z,42.83
2017-09-23T13:09:01.739Z,42.97
2017-09-23T13:11:29.008Z,43.70
2017-09-23T13:13:57.185Z,41.55
2017-09-23T13:16:24.743Z,45.75
2017-09-23T13:18:52.939Z,38.63
2017-09-23T13:21:20.147Z,41.08
2017-09-23T13:23:47.855Z,44.13
2017-09-23T13:26:15.192Z,45.95
2017-09-23T13:31:14.698Z,39.45
2017-09-23T13:33:43.625Z,42.45
2017-09-23T13:36:10.888Z,44.08
2017-09-23T13:38:38.327Z,44.05
2017-09-23T13:41:05.412Z,45.80
2017-09-23T13:43:34.112Z,45.92
2017-09-23T13:46:02.116Z,43.25
2017-09-23T13:48:29.034Z,45.65
2017-09-23T13:50:56.183Z,43.50
2017-09-23T13:53:23.322Z,42.30
2017-09-23T13:55:50.611Z,41.10
2017-09-23T13:58:19.346Z,37.25
2017-09-23T14:00:52.625Z,42.95
2017-09-23T14:03:22.499Z,42.53
2017-09-23T14:05:52.004Z,46.60
2017-09-23T14:08:19.756Z,43.70
2017-09-23T14:10:46.954Z,44.03
2017-09-23T14:13:14.548Z,43.55
2017-09-23T14:15:41.832Z,41.60
2017-09-23T14:18:09.432Z,40.42
2017-09-23T14:20:36.580Z,41.55
2017-09-23T14:23:03.811Z,43.78
2017-09-23T14:25:30.680Z,41.15
2017-09-23T14:27:57.559Z,42.45
2017-09-23T14:30:32.063Z,42.08
2017-09-23T14:33:02.121Z,41.05
2017-09-23T14:35:28.996Z,38.08
2017-09-23T14:37:56.701Z,46.08
2017-09-23T14:40:23.904Z,40.72
2017-09-23T14:42:51.285Z,39.15
2017-09-23T14:45:18.182Z,38.42
2017-09-23T14:47:45.065Z,42.67
2017-09-23T14:50:11.939Z,40.97
2017-09-23T14:52:39.171Z,40.50
2017-09-23T14:55:07.091Z,40.50
2017-09-23T14:57:34.120Z,40.70
2017-09-23T15:00:03.662Z,39.38
2017-09-23T15:02:33.668Z,40.33
2017-09-23T15:05:01.805Z,39.05
2017-09-23T15:07:30.271Z,38.65
2017-09-23T15:10:03.505Z,39.85
2017-09-23T15:12:31.242Z,38.85
2017-09-23T15:14:58.478Z,37.22
2017-09-23T15:17:26.182Z,42.03
2017-09-23T15:19:54.206Z,40.15
2017-09-23T15:22:21.863Z,39.78
2017-09-23T15:24:48.754Z,37.75
2017-09-23T15:27:16.108Z,40.70
2017-09-23T15:29:43.377Z,39.13
2017-09-23T15:32:10.644Z,40.12
2017-09-23T15:34:38.075Z,38.55
2017-09-23T15:37:05.433Z,39.92
2017-09-23T15:39:32.626Z,41.60
2017-09-23T15:41:59.942Z,39.47
2017-09-23T15:44:27.739Z,38.17
2017-09-23T15:46:55.945Z,38.83
2017-09-23T15:49:23.731Z,39.53
2017-09-23T15:51:51.654Z,37.30
2017-09-23T15:54:18.590Z,43.70
2017-09-23T15:56:45.942Z,39.22
2017-09-23T15:59:13.579Z,39.85
2017-09-23T16:01:40.551Z,38.00
2017-09-23T16:04:08.687Z,41.37
2017-09-23T16:06:36.764Z,35.85
2017-09-23T16:09:04.951Z,37.38
2017-09-23T16:11:32.748Z,39.90
2017-09-23T16:14:00.246Z,37.58
2017-09-23T16:16:27.896Z,37.42
2017-09-23T16:18:55.450Z,36.63
2017-09-23T16:21:23.020Z,37.83
2017-09-23T16:23:51.192Z,35.88
2017-09-23T16:26:18.116Z,34.80
2017-09-23T16:28:49.935Z,37.03
2017-09-23T16:31:18.168Z,35.15
2017-09-23T16:33:45.942Z,36.40
2017-09-23T16:36:12.826Z,34.58
2017-09-23T16:38:40.836Z,36.75
2017-09-23T16:41:08.041Z,37.95
2017-09-23T16:43:35.762Z,36.17
2017-09-23T16:46:02.891Z,34.50
2017-09-23T16:48:31.647Z,33.50
2017-09-23T16:50:58.583Z,38.63
2017-09-23T16:53:25.866Z,37.70
2017-09-23T16:55:53.036Z,37.42
2017-09-23T16:58:21.370Z,42.30
2017-09-23T17:00:48.363Z,37.60
2017-09-23T17:03:16.139Z,39.25
2017-09-23T17:05:43.034Z,39.08
2017-09-23T17:10:42.385Z,40.72
2017-09-23T17:15:45.647Z,36.03
2017-09-23T17:18:17.915Z,41.95
2017-09-23T17:25:18.804Z,41.08
2017-09-23T17:27:47.891Z,48.67
2017-09-23T17:30:17.259Z,39.17
2017-09-23T17:32:48.519Z,41.97
2017-09-23T17:37:49.066Z,45.05
2017-09-23T17:40:16.945Z,48.35
2017-09-23T17:42:46.321Z,49.13
2017-09-23T17:45:15.181Z,42.30
2017-09-23T17:47:44.412Z,47.22
2017-09-23T17:50:12.088Z,49.42
2017-09-23T17:52:44.640Z,48.08
2017-09-23T17:55:15.789Z,47.35
2017-09-23T17:57:44.004Z,51.75
2017-09-23T18:00:11.975Z,52.50
2017-09-23T18:02:41.642Z,47.40
2017-09-23T18:05:08.689Z,49.20
2017-09-23T18:07:42.217Z,50.22
2017-09-23T18:10:10.159Z,59.25
2017-09-23T18:12:37.823Z,50.33
2017-09-23T18:15:05.442Z,47.58
2017-09-23T18:17:33.796Z,49.72
2017-09-23T18:20:05.425Z,62.03
2017-09-23T18:22:32.746Z,48.42
2017-09-23T18:25:00.739Z,45.15
2017-09-23T18:27:27.910Z,54.78
2017-09-23T18:29:56.704Z,54.33
2017-09-23T18:32:24.680Z,41.47
2017-09-23T18:34:52.833Z,49.42
2017-09-23T18:37:20.490Z,50.90
2017-09-23T18:39:49.729Z,52.70
2017-09-23T18:42:21.108Z,55.55
2017-09-23T18:44:49.519Z,54.22
2017-09-23T18:47:17.261Z,62.25
2017-09-23T18:49:44.118Z,52.28
2017-09-23T18:52:12.115Z,54.80
2017-09-23T18:57:13.295Z,56.63
2017-09-23T18:59:40.492Z,57.58
2017-09-23T19:02:09.425Z,51.78
2017-09-23T19:04:36.868Z,57.72
2017-09-23T19:07:04.066Z,55.03
2017-09-23T19:09:33.590Z,56.72
2017-09-23T19:12:05.983Z,62.80
2017-09-23T19:14:35.591Z,53.53
2017-09-23T19:17:03.603Z,50.65
2017-09-23T19:19:33.059Z,43.92
2017-09-23T19:22:01.644Z,51.63
2017-09-23T19:24:29.320Z,46.95
2017-09-23T19:26:56.531Z,49.65
2017-09-23T19:29:25.079Z,46.33
2017-09-23T19:31:53.277Z,56.42
2017-09-23T19:36:53.185Z,50.45
